Time;durP1;ratioP1;P1;durP2;ratioP2;P2;SDS_P1;SDS_P2;PMS_P1;PMS_P2;Temp;Humidity;BMP_temperature;BMP_pressure;BME280_temperature;BME280_humidity;BME280_pressure;Samples;Min_cycle;Max_cycle;Signal;HPM_P1;HPM_P2
2022/07/22 00:01:09;;;;;;;5.65;1.55;;;15.00;97.40;;;;;;5020255;28;20502;-57
2022/07/22 00:03:36;;;;;;;4.22;1.02;;;15.00;97.30;;;;;;5005679;28;20506;-58
2022/07/22 00:06:04;;;;;;;8.25;1.30;;;15.00;96.00;;;;;;5009601;28;20057;-58
2022/07/22 00:08:31;;;;;;;8.35;1.17;;;14.80;96.00;;;;;;5013051;28;20104;-57
2022/07/22 00:10:58;;;;;;;6.88;1.20;;;14.90;96.70;;;;;;5017211;28;20068;-58
2022/07/22 00:13:26;;;;;;;9.18;1.38;;;15.00;96.40;;;;;;5012221;28;20022;-59
2022/07/22 00:15:53;;;;;;;6.45;1.50;;;15.20;95.50;;;;;;5009373;28;20506;-51
2022/07/22 00:18:20;;;;;;;5.90;1.50;;;15.40;97.20;;;;;;5012295;28;20026;-57
2022/07/22 00:20:47;;;;;;;4.05;1.75;;;15.70;96.70;;;;;;5014946;28;20112;-60
2022/07/22 00:23:15;;;;;;;7.32;1.38;;;15.80;95.70;;;;;;5019391;28;20040;-57
2022/07/22 00:25:42;;;;;;;7.72;1.65;;;15.80;94.50;;;;;;5024199;28;20049;-58
2022/07/22 00:28:09;;;;;;;7.13;1.70;;;15.80;94.90;;;;;;5013784;28;20116;-55
2022/07/22 00:30:37;;;;;;;5.57;1.33;;;15.70;93.60;;;;;;5015515;28;20033;-52
2022/07/22 00:33:04;;;;;;;9.43;1.20;;;15.60;93.30;;;;;;5021921;28;20033;-58
2022/07/22 00:35:32;;;;;;;9.27;1.85;;;15.40;93.30;;;;;;5019285;28;20068;-54
2022/07/22 00:37:59;;;;;;;6.20;1.17;;;15.20;94.50;;;;;;5009683;28;20030;-56
2022/07/22 00:40:26;;;;;;;6.53;1.23;;;15.10;95.40;;;;;;5016835;28;20398;-56
2022/07/22 00:42:54;;;;;;;2.78;1.00;;;14.90;95.90;;;;;;5011095;28;20042;-56
2022/07/22 00:45:21;;;;;;;13.07;1.70;;;14.90;96.30;;;;;;5018771;28;20967;-55
2022/07/22 00:47:48;;;;;;;5.65;1.05;;;14.90;94.90;;;;;;5011230;28;20037;-57
2022/07/22 00:50:16;;;;;;;5.97;1.40;;;15.00;95.70;;;;;;5012938;28;20026;-54
2022/07/22 00:52:45;;;;;;;10.30;4.32;;;15.20;95.60;;;;;;5011540;28;20029;-58
2022/07/22 00:55:12;;;;;;;7.05;1.60;;;15.30;94.80;;;;;;5019463;28;20032;-53
2022/07/22 00:57:40;;;;;;;13.18;1.65;;;15.40;93.40;;;;;;5016265;28;20487;-58
2022/07/22 01:00:12;;;;;;;5.70;1.27;;;15.40;94.00;;;;;;5009932;28;20133;-57
2022/07/22 01:02:40;;;;;;;6.75;3.00;;;15.70;94.50;;;;;;5025020;28;20037;-55
2022/07/22 01:05:07;;;;;;;8.27;1.67;;;15.90;93.20;;;;;;5006436;28;20034;-56
2022/07/22 01:07:36;;;;;;;4.47;1.65;;;16.00;92.60;;;;;;5000012;28;20053;-57
2022/07/22 01:10:04;;;;;;;9.60;2.05;;;15.90;93.00;;;;;;5006863;28;20037;-59
2022/07/22 01:12:32;;;;;;;12.93;2.45;;;15.80;92.90;;;;;;4999198;28;20421;-54
2022/07/22 01:14:59;;;;;;;9.35;1.75;;;15.70;91.70;;;;;;5013956;28;20036;-62
2022/07/22 01:17:27;;;;;;;9.95;1.55;;;15.60;92.70;;;;;;5011846;28;20029;-59
2022/07/22 01:19:59;;;;;;;6.20;1.27;;;15.40;92.70;;;;;;5013690;28;20444;-59
2022/07/22 01:22:28;;;;;;;4.63;1.02;;;15.40;93.30;;;;;;5025063;28;20041;-60
2022/07/22 01:24:55;;;;;;;7.75;1.85;;;15.40;92.90;;;;;;5015082;28;20017;-60
2022/07/22 01:27:22;;;;;;;6.72;1.92;;;15.50;92.60;;;;;;5018460;28;20083;-62
2022/07/22 01:29:49;;;;;;;11.85;0.90;;;15.60;91.80;;;;;;5010867;28;20424;-61
2022/07/22 01:32:17;;;;;;;4.60;1.02;;;15.60;92.00;;;;;;5009957;28;20104;-61
2022/07/22 01:34:44;;;;;;;5.40;1.25;;;15.80;92.10;;;;;;5009079;28;20108;-60
2022/07/22 01:37:12;;;;;;;12.07;1.42;;;16.00;92.20;;;;;;5008158;28;20109;-62
2022/07/22 01:39:39;;;;;;;5.40;1.30;;;16.20;91.60;;;;;;5019855;28;20021;-63
2022/07/22 01:42:06;;;;;;;10.20;1.13;;;16.40;90.70;;;;;;5010068;28;20030;-60
2022/07/22 01:44:35;;;;;;;3.97;0.90;;;16.70;91.10;;;;;;5025566;28;20109;-60
2022/07/22 01:47:02;;;;;;;8.05;1.50;;;17.00;90.00;;;;;;5017561;28;20053;-60
2022/07/22 01:49:30;;;;;;;10.55;1.50;;;17.30;87.20;;;;;;5018268;28;20014;-59
2022/07/22 01:51:57;;;;;;;9.32;1.10;;;17.50;88.20;;;;;;5010482;28;20053;-60
2022/07/22 01:54:24;;;;;;;8.95;1.42;;;17.60;84.20;;;;;;5010130;28;20030;-60
2022/07/22 01:56:51;;;;;;;5.30;1.08;;;17.60;84.20;;;;;;5011495;28;20037;-61
2022/07/22 01:59:19;;;;;;;6.28;1.00;;;17.50;84.80;;;;;;5008265;28;20093;-60
2022/07/22 02:01:46;;;;;;;4.30;1.02;;;17.30;87.20;;;;;;5010750;28;20057;-60
2022/07/22 02:04:13;;;;;;;6.75;0.90;;;16.90;88.70;;;;;;5006593;28;20018;-60
2022/07/22 02:06:40;;;;;;;7.90;1.02;;;16.50;92.00;;;;;;5009985;28;20490;-60
2022/07/22 02:09:08;;;;;;;6.05;1.23;;;16.20;92.60;;;;;;5008205;28;20030;-61
2022/07/22 02:11:35;;;;;;;8.63;1.35;;;16.10;93.50;;;;;;5019698;28;20052;-64
2022/07/22 02:14:03;;;;;;;6.00;1.25;;;15.90;94.30;;;;;;5008121;28;20487;-60
2022/07/22 02:16:31;;;;;;;6.20;1.23;;;15.80;93.50;;;;;;5010233;28;20032;-61
2022/07/22 02:18:58;;;;;;;6.90;1.20;;;15.90;94.30;;;;;;5013851;28;20029;-60
2022/07/22 02:21:25;;;;;;;7.57;1.15;;;16.00;93.80;;;;;;5007609;28;20864;-60
2022/07/22 02:23:52;;;;;;;9.88;1.40;;;16.20;93.80;;;;;;5008583;28;20100;-60
2022/07/22 02:26:20;;;;;;;9.50;1.77;;;16.70;95.30;;;;;;5023561;28;20021;-61
2022/07/22 02:28:47;;;;;;;10.13;1.30;;;16.80;93.00;;;;;;5006395;28;20591;-61
2022/07/22 02:31:15;;;;;;;7.63;1.40;;;16.90;91.50;;;;;;5014922;28;20402;-61
2022/07/22 02:33:42;;;;;;;8.30;1.17;;;16.70;90.50;;;;;;5011736;28;20030;-61
2022/07/22 02:36:09;;;;;;;7.00;1.98;;;16.50;90.30;;;;;;5008405;28;20030;-61
2022/07/22 02:38:37;;;;;;;11.25;3.35;;;16.40;90.20;;;;;;5014578;28;20029;-59
2022/07/22 02:41:04;;;;;;;8.73;2.03;;;16.30;90.70;;;;;;5009116;28;20482;-61
2022/07/22 02:43:32;;;;;;;13.93;1.90;;;16.10;88.50;;;;;;5008023;28;20083;-60
2022/07/22 02:45:59;;;;;;;14.88;1.20;;;16.10;87.50;;;;;;5010057;28;20025;-59
2022/07/22 02:48:26;;;;;;;5.22;0.90;;;16.10;86.20;;;;;;5004864;28;20077;-59
2022/07/22 02:50:54;;;;;;;12.85;1.45;;;16.10;86.30;;;;;;5001610;28;20018;-60
2022/07/22 02:53:21;;;;;;;13.27;1.58;;;16.20;86.90;;;;;;5003899;28;20030;-61
2022/07/22 02:55:48;;;;;;;3.88;0.85;;;16.10;85.80;;;;;;5000855;28;20030;-60
2022/07/22 02:58:15;;;;;;;7.10;1.23;;;16.10;85.70;;;;;;4995726;28;20033;-60
2022/07/22 03:00:43;;;;;;;12.98;1.38;;;16.40;84.70;;;;;;4993027;28;20053;-60
2022/07/22 03:03:10;;;;;;;12.70;1.55;;;16.60;82.60;;;;;;4997305;28;20037;-60
2022/07/22 03:05:37;;;;;;;4.28;0.80;;;16.70;81.50;;;;;;5000052;28;20056;-60
2022/07/22 03:08:05;;;;;;;4.90;0.88;;;16.80;83.10;;;;;;5002459;28;20033;-59
2022/07/22 03:10:32;;;;;;;4.78;1.00;;;17.10;82.40;;;;;;5001223;28;20041;-60
2022/07/22 03:13:00;;;;;;;7.00;1.00;;;17.30;80.40;;;;;;5010148;28;20136;-60
2022/07/22 03:15:27;;;;;;;9.25;1.80;;;17.50;80.70;;;;;;5011981;28;20053;-61
2022/07/22 03:17:54;;;;;;;4.63;0.77;;;17.70;79.60;;;;;;5006056;28;20040;-60
2022/07/22 03:20:22;;;;;;;5.20;0.73;;;17.90;81.70;;;;;;5006203;28;20029;-60
2022/07/22 03:22:49;;;;;;;5.55;0.82;;;17.70;81.30;;;;;;5009791;28;20156;-60
2022/07/22 03:25:16;;;;;;;7.00;1.00;;;17.50;80.90;;;;;;5005194;28;20022;-60
2022/07/22 03:27:43;;;;;;;5.82;1.10;;;17.50;83.40;;;;;;5006720;28;20084;-60
2022/07/22 03:30:11;;;;;;;11.07;2.50;;;17.60;79.20;;;;;;5004057;28;20030;-60
2022/07/22 03:32:38;;;;;;;5.22;0.88;;;17.30;78.70;;;;;;5018766;28;20041;-60
2022/07/22 03:35:06;;;;;;;5.22;0.85;;;17.10;80.50;;;;;;4999827;28;20022;-60
2022/07/22 03:37:33;;;;;;;11.27;0.95;;;16.70;80.00;;;;;;5010806;28;20060;-61
2022/07/22 03:40:01;;;;;;;10.15;1.17;;;16.40;81.20;;;;;;4999626;28;20022;-60
2022/07/22 03:42:28;;;;;;;4.60;0.85;;;16.40;82.80;;;;;;5008813;28;20534;-60
2022/07/22 03:44:55;;;;;;;8.80;2.33;;;16.40;83.40;;;;;;5016265;28;20029;-60
2022/07/22 03:47:23;;;;;;;6.78;1.00;;;16.40;84.50;;;;;;5014651;28;20092;-60
2022/07/22 03:49:51;;;;;;;5.32;1.30;;;16.40;83.40;;;;;;5006343;28;20021;-60
2022/07/22 03:52:19;;;;;;;4.65;0.90;;;16.40;82.90;;;;;;5007945;28;20030;-60
2022/07/22 03:54:46;;;;;;;6.82;0.73;;;16.20;81.70;;;;;;5008377;28;20022;-60
2022/07/22 03:57:14;;;;;;;4.00;0.60;;;16.10;82.70;;;;;;5014659;28;20568;-60
2022/07/22 03:59:41;;;;;;;6.78;0.77;;;16.20;81.90;;;;;;5022339;28;20032;-60
2022/07/22 04:02:08;;;;;;;2.05;0.45;;;16.20;81.20;;;;;;5014801;28;20042;-61
2022/07/22 04:04:35;;;;;;;4.32;0.60;;;16.10;80.00;;;;;;5013225;28;20018;-59
2022/07/22 04:07:03;;;;;;;3.55;0.57;;;16.20;80.30;;;;;;5015463;28;20038;-59
2022/07/22 04:09:31;;;;;;;3.45;0.70;;;16.20;81.30;;;;;;5014699;28;20021;-60
2022/07/22 04:11:58;;;;;;;2.17;0.70;;;16.30;81.00;;;;;;5010639;28;20096;-60
2022/07/22 04:14:26;;;;;;;5.60;0.88;;;16.20;82.10;;;;;;5011786;28;20044;-60
2022/07/22 04:16:53;;;;;;;3.20;0.60;;;16.20;83.80;;;;;;5021653;28;20030;-61
2022/07/22 04:19:20;;;;;;;4.93;0.60;;;16.20;85.30;;;;;;5011755;28;20032;-61
2022/07/22 04:21:47;;;;;;;3.10;0.70;;;16.20;87.20;;;;;;5011101;28;20054;-60
2022/07/22 04:24:15;;;;;;;4.38;1.75;;;16.10;84.60;;;;;;5021214;28;20022;-61
2022/07/22 04:26:42;;;;;;;5.68;1.50;;;16.20;83.20;;;;;;5007801;28;20739;-60
2022/07/22 04:29:09;;;;;;;4.43;1.55;;;16.20;83.10;;;;;;5009219;28;20378;-61
2022/07/22 04:31:36;;;;;;;7.00;1.67;;;16.20;83.90;;;;;;5023330;28;20112;-60
2022/07/22 04:34:04;;;;;;;4.07;1.23;;;16.30;86.80;;;;;;5012634;28;20017;-61
2022/07/22 04:36:31;;;;;;;7.38;1.02;;;16.40;85.60;;;;;;5013918;28;20036;-61
2022/07/22 04:38:58;;;;;;;2.50;0.93;;;16.30;86.90;;;;;;5019713;28;20516;-59
2022/07/22 04:41:25;;;;;;;4.85;1.10;;;16.40;87.70;;;;;;5010955;28;20541;-59
2022/07/22 04:43:53;;;;;;;5.38;1.55;;;16.40;86.70;;;;;;5003198;28;20042;-60
2022/07/22 04:46:20;;;;;;;8.95;1.40;;;16.40;88.30;;;;;;5011999;28;20022;-59
2022/07/22 04:48:48;;;;;;;4.50;0.73;;;16.30;88.70;;;;;;5017185;28;20095;-57
2022/07/22 04:51:15;;;;;;;4.30;1.00;;;16.10;88.10;;;;;;5020578;28;20026;-57
2022/07/22 04:53:42;;;;;;;6.38;1.23;;;15.80;89.70;;;;;;5017136;28;20446;-54
2022/07/22 04:56:09;;;;;;;6.63;1.00;;;15.80;90.60;;;;;;5009757;28;20026;-57
2022/07/22 04:58:37;;;;;;;6.55;1.40;;;15.70;90.60;;;;;;5015220;28;20024;-57
2022/07/22 05:01:04;;;;;;;8.20;1.48;;;15.70;90.60;;;;;;5027323;28;20567;-60
2022/07/22 05:03:31;;;;;;;5.40;1.92;;;15.80;90.50;;;;;;5004535;28;20109;-59
2022/07/22 05:05:59;;;;;;;5.68;1.23;;;15.70;89.50;;;;;;5019973;28;20032;-60
2022/07/22 05:08:26;;;;;;;6.10;1.42;;;15.60;89.90;;;;;;5020569;28;20018;-60
2022/07/22 05:10:53;;;;;;;5.00;0.98;;;15.60;89.90;;;;;;5024588;28;20033;-59
2022/07/22 05:13:20;;;;;;;7.32;1.00;;;15.30;90.40;;;;;;5013524;28;20554;-59
2022/07/22 05:15:48;;;;;;;6.18;1.02;;;15.10;91.80;;;;;;5017263;28;20506;-61
2022/07/22 05:18:16;;;;;;;5.07;1.10;;;14.90;94.30;;;;;;5013308;28;20505;-60
2022/07/22 05:20:43;;;;;;;7.15;2.28;;;14.60;96.10;;;;;;5008720;28;20030;-58
2022/07/22 05:23:11;;;;;;;26.58;9.60;;;14.30;97.00;;;;;;5014832;28;20121;-57
2022/07/22 05:25:38;;;;;;;7.93;3.83;;;14.10;97.60;;;;;;5016737;28;20390;-58
2022/07/22 05:28:05;;;;;;;12.93;1.90;;;13.90;97.50;;;;;;5026037;28;20119;-59
2022/07/22 05:30:33;;;;;;;6.40;1.30;;;13.80;98.60;;;;;;5010383;28;20026;-59
2022/07/22 05:33:00;;;;;;;5.10;0.98;;;13.70;98.60;;;;;;5018179;28;20025;-59
2022/07/22 05:35:28;;;;;;;12.10;1.65;;;13.50;98.40;;;;;;5017782;28;20034;-60
2022/07/22 05:37:56;;;;;;;5.97;1.48;;;13.50;99.00;;;;;;5025554;28;20014;-59
2022/07/22 05:40:23;;;;;;;9.60;1.75;;;13.40;99.50;;;;;;5012089;28;20034;-59
2022/07/22 05:42:50;;;;;;;9.93;2.97;;;13.40;99.60;;;;;;5022962;28;20128;-59
2022/07/22 05:45:17;;;;;;;7.65;1.25;;;13.40;99.70;;;;;;5016429;28;20433;-59
2022/07/22 05:47:45;;;;;;;10.00;2.20;;;13.30;99.80;;;;;;5012686;28;20230;-59
2022/07/22 05:50:12;;;;;;;5.97;1.50;;;13.30;99.80;;;;;;5014008;28;20072;-60
2022/07/22 05:52:40;;;;;;;12.25;1.50;;;13.30;99.90;;;;;;5025574;28;20495;-60
2022/07/22 05:55:07;;;;;;;9.45;1.40;;;13.40;99.90;;;;;;5013195;28;20032;-64
2022/07/22 05:57:35;;;;;;;5.35;1.40;;;13.40;99.90;;;;;;5009897;28;20387;-60
2022/07/22 06:00:04;;;;;;;7.18;1.48;;;13.50;99.90;;;;;;5006445;28;20079;-59
2022/07/22 06:02:31;;;;;;;8.40;1.05;;;13.50;99.90;;;;;;5007153;28;20521;-59
2022/07/22 06:05:00;;;;;;;8.73;1.15;;;13.50;99.90;;;;;;5007958;28;20026;-59
2022/07/22 06:07:28;;;;;;;9.10;1.63;;;13.50;99.90;;;;;;5015603;28;20109;-59
2022/07/22 06:09:55;;;;;;;8.18;2.33;;;13.50;99.90;;;;;;5016051;28;20014;-59
2022/07/22 06:12:22;;;;;;;13.23;1.35;;;13.50;99.90;;;;;;5025688;28;20076;-59
2022/07/22 06:14:49;;;;;;;9.88;1.25;;;13.40;99.90;;;;;;5015136;28;20502;-59
2022/07/22 06:17:17;;;;;;;6.25;1.08;;;13.40;99.90;;;;;;5018539;28;20365;-59
2022/07/22 06:19:44;;;;;;;11.55;1.20;;;13.40;99.90;;;;;;5013517;28;20026;-59
2022/07/22 06:22:11;;;;;;;8.00;1.38;;;13.40;99.90;;;;;;5017270;28;20041;-60
2022/07/22 06:24:39;;;;;;;10.32;1.38;;;13.40;99.90;;;;;;5021875;28;20033;-60
2022/07/22 06:27:06;;;;;;;9.05;1.27;;;13.30;99.90;;;;;;5019556;28;20030;-59
2022/07/22 06:29:33;;;;;;;9.10;1.30;;;13.30;99.90;;;;;;5010518;28;20137;-60
2022/07/22 06:32:01;;;;;;;4.47;1.35;;;13.30;99.90;;;;;;5008967;28;20041;-60
2022/07/22 06:34:29;;;;;;;6.55;1.88;;;13.20;99.90;;;;;;5013577;28;20029;-60
2022/07/22 06:36:56;;;;;;;8.77;1.55;;;13.20;99.90;;;;;;5016423;28;20482;-60
2022/07/22 06:39:23;;;;;;;20.75;2.38;;;13.20;99.90;;;;;;5008897;28;20053;-59
2022/07/22 06:41:51;;;;;;;8.73;1.50;;;13.20;99.90;;;;;;5023942;28;20121;-60
2022/07/22 06:44:18;;;;;;;4.97;1.67;;;13.10;99.90;;;;;;5012884;28;20029;-59
2022/07/22 06:46:45;;;;;;;9.07;1.42;;;13.10;99.90;;;;;;5023839;28;20038;-59
2022/07/22 06:49:13;;;;;;;10.35;1.35;;;13.10;99.90;;;;;;5018723;28;20355;-59
2022/07/22 06:51:40;;;;;;;11.75;1.88;;;13.10;99.90;;;;;;5016496;28;20633;-59
2022/07/22 06:54:07;;;;;;;7.03;1.20;;;13.10;99.90;;;;;;5026295;28;20027;-59
2022/07/22 06:56:34;;;;;;;6.55;1.17;;;13.00;99.90;;;;;;5010927;28;20508;-60
2022/07/22 06:59:02;;;;;;;13.15;1.15;;;13.00;99.90;;;;;;5016754;28;20417;-60
2022/07/22 07:01:29;;;;;;;8.50;1.58;;;12.90;99.90;;;;;;5017640;28;20045;-60
2022/07/22 07:03:56;;;;;;;9.63;1.20;;;12.90;99.90;;;;;;5018885;28;20029;-59
2022/07/22 07:06:23;;;;;;;5.30;1.08;;;12.90;99.90;;;;;;5015696;28;20061;-59
2022/07/22 07:08:51;;;;;;;7.75;1.20;;;12.90;99.90;;;;;;5013610;28;20471;-59
2022/07/22 07:11:18;;;;;;;4.47;0.93;;;12.90;99.90;;;;;;5015462;28;20029;-60
2022/07/22 07:13:45;;;;;;;8.77;1.60;;;12.80;99.90;;;;;;5020112;28;20075;-59
2022/07/22 07:16:12;;;;;;;3.83;1.88;;;12.80;99.90;;;;;;5010668;28;20030;-60
2022/07/22 07:18:40;;;;;;;7.93;1.63;;;12.80;99.90;;;;;;5011811;28;20030;-59
2022/07/22 07:21:07;;;;;;;3.95;1.40;;;12.80;99.90;;;;;;5013646;28;20790;-59
2022/07/22 07:23:34;;;;;;;5.88;1.00;;;12.70;99.90;;;;;;5013279;28;20475;-59
2022/07/22 07:26:02;;;;;;;8.80;2.83;;;12.70;99.90;;;;;;5012702;28;20026;-67
2022/07/22 07:28:29;;;;;;;11.90;2.08;;;12.60;99.90;;;;;;5012468;28;20700;-63
2022/07/22 07:30:57;;;;;;;7.05;1.98;;;12.60;99.90;;;;;;5007218;28;20029;-63
2022/07/22 07:33:24;;;;;;;17.70;2.65;;;12.60;99.90;;;;;;5004578;28;20391;-64
2022/07/22 07:35:51;;;;;;;11.32;3.50;;;12.60;99.90;;;;;;5016635;28;20026;-63
2022/07/22 07:38:19;;;;;;;10.20;3.17;;;12.70;99.90;;;;;;5012099;28;20033;-64
2022/07/22 07:40:46;;;;;;;8.38;2.00;;;12.70;99.90;;;;;;5016341;28;20026;-62
2022/07/22 07:43:13;;;;;;;10.13;2.20;;;12.80;99.90;;;;;;5020685;28;20038;-63
2022/07/22 07:45:41;;;;;;;8.98;1.90;;;12.70;99.90;;;;;;5016238;28;20025;-65
2022/07/22 07:48:08;;;;;;;14.27;1.77;;;12.70;99.90;;;;;;5019656;28;20042;-64
2022/07/22 07:50:35;;;;;;;12.35;2.10;;;12.60;99.90;;;;;;5011901;28;20022;-63
2022/07/22 07:53:03;;;;;;;6.43;2.03;;;12.50;99.90;;;;;;5016979;28;20413;-63
2022/07/22 07:55:31;;;;;;;9.20;1.50;;;12.40;99.90;;;;;;5015762;28;20029;-63
2022/07/22 07:57:58;;;;;;;5.50;2.17;;;12.30;99.90;;;;;;5005407;28;20628;-64
2022/07/22 08:00:32;;;;;;;6.90;2.50;;;12.10;99.90;;;;;;5028258;28;20040;-64
2022/07/22 08:02:59;;;;;;;6.75;1.83;;;12.00;99.90;;;;;;5007857;28;20038;-64
2022/07/22 08:05:27;;;;;;;15.07;5.35;;;12.00;99.90;;;;;;5009732;28;20517;-63
2022/07/22 08:07:54;;;;;;;16.77;4.70;;;12.00;99.90;;;;;;4997091;28;20045;-64
2022/07/22 08:10:22;;;;;;;9.52;4.45;;;12.00;99.90;;;;;;5014355;28;20030;-62
2022/07/22 08:12:50;;;;;;;16.50;5.63;;;12.10;99.90;;;;;;5022652;28;20497;-62
2022/07/22 08:15:17;;;;;;;21.23;7.65;;;12.20;99.90;;;;;;5010885;28;20058;-64
2022/07/22 08:17:45;;;;;;;24.00;6.22;;;12.30;99.90;;;;;;5017633;28;20036;-65
2022/07/22 08:20:12;;;;;;;22.23;7.28;;;12.40;99.90;;;;;;5025510;28;20030;-64
2022/07/22 08:22:39;;;;;;;11.23;4.05;;;12.60;99.90;;;;;;5004805;28;20037;-65
2022/07/22 08:25:08;;;;;;;13.77;3.60;;;12.70;99.90;;;;;;5017297;28;20059;-66
2022/07/22 08:27:36;;;;;;;11.77;2.95;;;12.70;99.90;;;;;;5015416;28;20033;-64
2022/07/22 08:30:05;;;;;;;8.07;3.05;;;12.70;99.90;;;;;;5011459;28;20395;-61
2022/07/22 08:32:34;;;;;;;11.70;3.05;;;12.70;99.90;;;;;;5016826;28;20374;-61
2022/07/22 08:35:02;;;;;;;10.88;2.83;;;12.70;99.90;;;;;;5020205;28;20104;-62
2022/07/22 08:37:29;;;;;;;14.73;3.05;;;12.60;99.90;;;;;;5020983;28;20041;-61
2022/07/22 08:39:58;;;;;;;7.82;1.98;;;12.60;99.90;;;;;;5003340;28;20116;-63
2022/07/22 08:42:26;;;;;;;10.93;2.35;;;12.60;99.90;;;;;;5004260;28;20502;-62
2022/07/22 08:44:56;;;;;;;13.30;1.92;;;12.60;99.90;;;;;;5011111;28;20010;-59
2022/07/22 08:47:25;;;;;;;9.00;2.38;;;12.60;99.90;;;;;;5013715;28;20041;-59
2022/07/22 08:49:52;;;;;;;10.13;2.58;;;12.50;99.90;;;;;;5013458;28;20046;-58
2022/07/22 08:52:19;;;;;;;8.82;2.00;;;12.50;99.90;;;;;;5023043;28;20489;-57
2022/07/22 08:54:46;;;;;;;5.07;2.05;;;12.50;99.90;;;;;;5017444;28;20026;-56
2022/07/22 08:57:14;;;;;;;10.35;2.00;;;12.60;99.90;;;;;;5014090;28;20026;-54
2022/07/22 08:59:51;;;;;;;13.45;3.22;;;12.60;99.90;;;;;;5018397;28;20030;-53
2022/07/22 09:02:19;;;;;;;8.10;1.90;;;12.50;99.90;;;;;;5009666;28;20510;-54
2022/07/22 09:05:05;;;;;;;17.70;2.33;;;12.50;99.90;;;;;;5004371;28;20040;-56
2022/07/22 09:07:41;;;;;;;8.57;2.75;;;12.60;99.90;;;;;;4998040;28;20438;-54
2022/07/22 09:10:11;;;;;;;7.65;1.77;;;12.50;99.90;;;;;;5006427;28;20054;-54
2022/07/22 09:12:58;;;;;;;9.93;2.17;;;12.50;99.90;;;;;;5007769;28;20108;-65
2022/07/22 09:15:31;;;;;;;7.32;1.92;;;12.50;99.90;;;;;;5006924;28;20037;-56
2022/07/22 09:17:59;;;;;;;6.82;1.83;;;12.50;99.90;;;;;;5010450;28;20030;-54
2022/07/22 09:20:27;;;;;;;9.43;2.00;;;12.50;99.90;;;;;;5012870;28;20029;-58
2022/07/22 09:22:55;;;;;;;9.80;1.90;;;12.50;99.90;;;;;;5015531;28;20493;-55
2022/07/22 09:25:35;;;;;;;13.90;2.53;;;12.50;99.90;;;;;;5010044;28;20026;-53
2022/07/22 09:28:08;;;;;;;7.88;2.13;;;12.40;99.90;;;;;;5023851;28;20418;-56
2022/07/22 09:30:45;;;;;;;9.43;2.00;;;12.40;99.90;;;;;;4997759;28;20017;-56
2022/07/22 09:33:12;;;;;;;9.82;2.95;;;12.40;99.90;;;;;;5002547;28;20018;-59
2022/07/22 09:35:40;;;;;;;11.65;2.30;;;12.50;99.90;;;;;;5001207;28;20038;-59
2022/07/22 09:38:10;;;;;;;8.35;1.48;;;12.40;99.90;;;;;;5015063;28;20025;-58
2022/07/22 09:40:42;;;;;;;4.93;1.35;;;12.40;99.90;;;;;;5017232;28;20502;-56
2022/07/22 09:43:16;;;;;;;8.05;1.50;;;12.30;99.90;;;;;;5010514;28;20042;-59
2022/07/22 09:45:56;;;;;;;13.02;1.90;;;12.30;99.90;;;;;;5016042;28;20084;-59
2022/07/22 09:48:25;;;;;;;5.90;1.25;;;12.30;99.90;;;;;;5010231;28;20062;-57
2022/07/22 09:50:54;;;;;;;11.57;1.38;;;12.20;99.90;;;;;;5022429;28;20036;-56
2022/07/22 09:53:24;;;;;;;7.78;1.45;;;12.20;99.90;;;;;;5013886;28;20025;-59
2022/07/22 09:55:51;;;;;;;4.70;1.25;;;12.20;99.90;;;;;;5011404;28;20033;-61
2022/07/22 09:58:19;;;;;;;4.85;1.65;;;12.20;99.90;;;;;;5009995;28;20025;-58
2022/07/22 10:00:47;;;;;;;3.00;1.23;;;12.10;99.90;;;;;;5010498;28;20048;-59
2022/07/22 10:03:21;;;;;;;2.33;0.98;;;12.10;99.90;;;;;;5009373;28;20044;-58
2022/07/22 10:05:50;;;;;;;7.82;1.83;;;12.10;99.90;;;;;;5013603;28;20040;-59
2022/07/22 10:08:18;;;;;;;10.32;5.32;;;12.10;99.90;;;;;;5010200;28;20136;-57
2022/07/22 10:10:45;;;;;;;17.40;11.18;;;12.10;99.90;;;;;;5015131;28;20033;-60
2022/07/22 10:13:13;;;;;;;15.98;12.10;;;12.10;99.90;;;;;;5013534;28;20076;-58
2022/07/22 10:15:40;;;;;;;33.00;21.73;;;12.10;99.90;;;;;;5006957;28;20058;-59
2022/07/22 10:18:14;;;;;;;41.70;24.70;;;12.10;99.90;;;;;;5024109;28;20030;-58
2022/07/22 10:20:41;;;;;;;29.95;18.58;;;12.10;99.90;;;;;;5012650;28;20034;-59
2022/07/22 10:23:11;;;;;;;32.58;19.00;;;12.00;99.90;;;;;;5017771;28;20042;-57
2022/07/22 10:25:59;;;;;;;32.30;15.63;;;12.00;99.90;;;;;;5020576;28;20025;-59
2022/07/22 10:28:35;;;;;;;26.77;17.60;;;12.00;99.90;;;;;;5006802;28;20075;-56
2022/07/22 10:31:19;;;;;;;36.75;21.60;;;12.00;99.90;;;;;;5014982;28;20116;-59
2022/07/22 10:33:49;;;;;;;43.00;20.73;;;11.90;99.90;;;;;;5015761;28;20034;-59
2022/07/22 10:36:31;;;;;;;33.67;19.83;;;12.00;99.90;;;;;;5023636;28;20605;-59
2022/07/22 10:39:11;;;;;;;45.72;20.27;;;12.00;99.90;;;;;;5012989;28;20516;-59
2022/07/22 10:41:44;;;;;;;42.17;20.92;;;12.00;99.90;;;;;;5013169;28;20046;-59
2022/07/22 10:44:12;;;;;;;33.25;18.20;;;12.10;99.90;;;;;;5010288;28;20024;-60
2022/07/22 10:46:54;;;;;;;15.40;6.10;;;12.10;99.90;;;;;;5016915;28;20475;-57
2022/07/22 10:49:24;;;;;;;11.85;4.97;;;12.10;99.90;;;;;;5016521;28;20026;-59
2022/07/22 10:52:11;;;;;;;7.82;4.35;;;12.10;99.90;;;;;;5020986;28;20017;-60
2022/07/22 10:55:17;;;;;;;6.22;2.50;;;12.10;99.90;;;;;;5003753;28;20426;-65
2022/07/22 10:57:44;;;;;;;4.80;2.25;;;12.10;99.90;;;;;;5006429;28;20044;-62
2022/07/22 11:00:12;;;;;;;9.50;1.98;;;12.10;99.90;;;;;;5010009;28;20113;-60
2022/07/22 11:02:39;;;;;;;4.57;1.30;;;12.00;99.90;;;;;;5015382;28;20049;-68
2022/07/22 11:05:11;;;;;;;7.65;1.80;;;12.00;99.90;;;;;;5013851;28;20036;-61
2022/07/22 11:07:48;;;;;;;8.18;2.38;;;12.00;99.90;;;;;;5014020;28;20097;-60
2022/07/22 11:10:17;;;;;;;8.05;2.33;;;11.90;99.90;;;;;;5014065;28;20429;-60
2022/07/22 11:12:45;;;;;;;4.22;1.58;;;12.00;99.90;;;;;;5021023;28;20050;-61
2022/07/22 11:15:13;;;;;;;7.07;1.95;;;11.90;99.90;;;;;;5014839;28;20025;-58
2022/07/22 11:17:44;;;;;;;7.18;1.85;;;11.90;99.90;;;;;;5019588;28;20018;-61
2022/07/22 11:20:13;;;;;;;10.70;2.45;;;11.90;99.90;;;;;;5010275;28;20104;-60
2022/07/22 11:22:46;;;;;;;9.75;2.45;;;11.90;99.90;;;;;;5022071;28;20044;-62
2022/07/22 11:25:15;;;;;;;9.95;3.35;;;11.90;99.90;;;;;;5016217;28;20029;-59
2022/07/22 11:27:52;;;;;;;12.02;4.68;;;12.00;99.90;;;;;;5012280;28;20061;-62
2022/07/22 11:30:19;;;;;;;10.60;3.70;;;12.10;99.90;;;;;;5022862;28;20025;-58
2022/07/22 11:32:48;;;;;;;13.88;4.65;;;12.10;99.90;;;;;;5012098;28;20025;-57
2022/07/22 11:35:15;;;;;;;10.38;5.05;;;12.10;99.90;;;;;;5016421;28;20383;-55
2022/07/22 11:37:56;;;;;;;12.60;4.50;;;12.10;99.90;;;;;;5019681;28;20029;-60
2022/07/22 11:40:32;;;;;;;14.18;4.78;;;12.10;99.90;;;;;;5009399;28;20113;-60
2022/07/22 11:43:05;;;;;;;10.35;4.70;;;12.00;99.90;;;;;;5012138;28;20449;-59
2022/07/22 11:45:32;;;;;;;11.50;4.10;;;11.90;99.90;;;;;;5012763;28;20026;-59
2022/07/22 11:48:08;;;;;;;12.65;4.32;;;11.90;99.90;;;;;;5021787;28;20123;-57
2022/07/22 11:50:35;;;;;;;18.40;4.80;;;11.90;99.90;;;;;;4995383;28;20025;-55
2022/07/22 11:53:05;;;;;;;12.63;5.07;;;11.90;99.90;;;;;;5018123;28;20076;-57
2022/07/22 11:55:33;;;;;;;12.60;5.60;;;11.90;99.90;;;;;;5017998;28;20041;-59
2022/07/22 11:58:01;;;;;;;11.65;5.93;;;11.90;99.90;;;;;;5009780;28;20117;-59
2022/07/22 12:00:28;;;;;;;20.50;6.85;;;11.90;99.90;;;;;;5023437;28;20029;-57
2022/07/22 12:02:56;;;;;;;11.32;6.28;;;11.90;99.90;;;;;;5018335;28;20065;-56
2022/07/22 12:05:23;;;;;;;15.35;6.53;;;11.90;99.90;;;;;;5020647;28;20378;-60
2022/07/22 12:07:51;;;;;;;16.88;6.25;;;11.90;99.90;;;;;;5014806;28;20026;-58
2022/07/22 12:10:21;;;;;;;20.92;6.90;;;12.00;99.90;;;;;;5018598;28;20033;-57
2022/07/22 12:12:52;;;;;;;19.00;7.68;;;12.00;99.90;;;;;;5015646;28;20033;-58
2022/07/22 12:15:25;;;;;;;14.90;6.63;;;12.00;99.90;;;;;;5019098;28;20021;-58
2022/07/22 12:18:14;;;;;;;15.13;6.18;;;12.00;99.90;;;;;;5008229;28;20037;-58
2022/07/22 12:20:46;;;;;;;13.02;6.53;;;12.00;99.90;;;;;;5001336;28;20033;-56
2022/07/22 12:23:14;;;;;;;17.77;6.55;;;11.90;99.90;;;;;;5020054;28;20045;-61
2022/07/22 12:25:59;;;;;;;21.20;7.28;;;11.90;99.90;;;;;;5022715;28;20032;-59
2022/07/22 12:28:27;;;;;;;12.70;7.05;;;11.90;99.90;;;;;;5023746;28;20030;-54
2022/07/22 12:30:58;;;;;;;16.52;9.00;;;11.90;99.90;;;;;;5011050;28;20534;-57
2022/07/22 12:33:25;;;;;;;19.60;8.95;;;11.90;99.90;;;;;;5010750;28;20028;-59
2022/07/22 12:36:05;;;;;;;20.83;9.52;;;11.80;99.90;;;;;;5016687;28;20053;-59
2022/07/22 12:38:33;;;;;;;20.05;8.07;;;11.80;99.90;;;;;;4997967;28;20033;-57
2022/07/22 12:41:30;;;;;;;20.40;8.40;;;11.70;99.90;;;;;;5008112;28;20022;-55
2022/07/22 12:43:57;;;;;;;21.00;8.52;;;11.60;99.90;;;;;;5000869;28;20038;-58
2022/07/22 12:46:24;;;;;;;15.95;8.57;;;11.50;99.90;;;;;;5015233;28;20026;-57
2022/07/22 12:48:59;;;;;;;24.35;9.40;;;11.50;99.90;;;;;;5015365;28;20029;-59
2022/07/22 12:51:27;;;;;;;20.90;8.80;;;11.40;99.90;;;;;;5009827;28;20034;-56